Time,TemperatureF,DewpointF,PressureIn,WindDirection,WindDirectionDegrees,WindSpeedMPH,WindSpeedGustMPH,Humidity,HourlyPrecipIn,Conditions,Clouds,dailyrainin,SoftwareType,DateUTC
2013-07-15 00:03:00,62.4,49.2,30.09,NNE,24,2.0,4.0,62,0.00,,,0.00,Wunderground v.1.15,2013-07-15 07:03:00,
2013-07-15 00:08:00,62.3,49.5,30.09,North,351,10.0,10.0,63,0.00,,,0.00,Wunderground v.1.15,2013-07-15 07:08:00,
2013-07-15 00:14:00,62.3,50.4,30.09,NNE,25,4.0,12.0,65,0.00,,,0.00,Wunderground v.1.15,2013-07-15 07:14:00,
2013-07-15 00:19:00,62.3,50.4,30.09,NNE,16,3.0,12.0,65,0.00,,,0.00,Wunderground v.1.15,2013-07-15 07:19:00,
2013-07-15 00:24:00,62.3,50.0,30.09,NE,34,0.0,7.0,64,0.00,,,0.00,Wunderground v.1.15,2013-07-15 07:24:00,
2013-07-15 00:29:00,62.3,49.5,30.09,North,350,4.0,7.0,63,0.00,,,0.00,Wunderground v.1.15,2013-07-15 07:29:00,
2013-07-15 00:34:00,62.2,49.9,30.09,NNE,13,1.0,2.0,64,0.00,,,0.00,Wunderground v.1.15,2013-07-15 07:34:00,
2013-07-15 00:39:00,62.2,49.9,30.09,NE,40,2.0,5.0,64,0.00,,,0.00,Wunderground v.1.15,2013-07-15 07:39:00,
2013-07-15 00:44:00,62.2,49.9,30.09,NE,42,0.0,3.0,64,0.00,,,0.00,Wunderground v.1.15,2013-07-15 07:44:00,
2013-07-15 00:50:00,62.1,49.8,30.09,NNE,32,2.0,2.0,64,0.00,,,0.00,Wunderground v.1.15,2013-07-15 07:50:00,
2013-07-15 00:55:00,62.1,50.2,30.09,ESE,119,0.0,2.0,65,0.00,,,0.00,Wunderground v.1.15,2013-07-15 07:55:00,
2013-07-15 01:00:00,62.0,49.7,30.09,NE,51,2.0,2.0,64,0.00,,,0.00,Wunderground v.1.15,2013-07-15 08:00:00,
2013-07-15 01:05:00,61.9,50.4,30.09,NE,54,1.0,4.0,66,0.00,,,0.00,Wunderground v.1.15,2013-07-15 08:05:00,
2013-07-15 01:10:00,61.8,50.7,30.09,ESE,111,4.0,4.0,67,0.00,,,0.00,Wunderground v.1.15,2013-07-15 08:10:00,
2013-07-15 01:15:00,61.6,50.1,30.09,ENE,60,2.0,4.0,66,0.00,,,0.00,Wunderground v.1.15,2013-07-15 08:15:00,
2013-07-15 01:20:00,61.4,49.9,30.09,East,92,2.0,2.0,66,0.00,,,0.00,Wunderground v.1.15,2013-07-15 08:20:00,
2013-07-15 01:25:00,61.1,50.1,30.10,ESE,118,0.0,2.0,67,0.00,,,0.00,Wunderground v.1.15,2013-07-15 08:25:00,
2013-07-15 01:31:00,60.9,50.3,30.10,ENE,59,2.0,2.0,68,0.00,,,0.00,Wunderground v.1.15,2013-07-15 08:31:00,
2013-07-15 01:36:00,60.7,50.5,30.09,ENE,57,3.0,3.0,69,0.00,,,0.00,Wunderground v.1.15,2013-07-15 08:36:00,
2013-07-15 01:41:00,60.6,50.4,30.09,NNE,29,0.0,1.0,69,0.00,,,0.00,Wunderground v.1.15,2013-07-15 08:41:00,
2013-07-15 01:46:00,60.4,50.2,30.10,ENE,76,1.0,3.0,69,0.00,,,0.00,Wunderground v.1.15,2013-07-15 08:46:00,
2013-07-15 01:51:00,60.3,50.1,30.09,East,100,0.0,1.0,69,0.00,,,0.00,Wunderground v.1.15,2013-07-15 08:51:00,
2013-07-15 01:56:00,60.2,49.6,30.09,East,99,1.0,2.0,68,0.00,,,0.00,Wunderground v.1.15,2013-07-15 08:56:00,
2013-07-15 02:01:00,60.1,49.9,30.09,ESE,121,0.0,3.0,69,0.00,,,0.00,Wunderground v.1.15,2013-07-15 09:01:00,
2013-07-15 02:07:00,59.9,50.1,30.09,East,79,0.0,3.0,70,0.00,,,0.00,Wunderground v.1.15,2013-07-15 09:07:00,
2013-07-15 02:12:00,59.8,50.0,30.09,ENE,67,2.0,2.0,70,0.00,,,0.00,Wunderground v.1.15,2013-07-15 09:12:00,
2013-07-15 02:18:00,59.6,50.2,30.09,East,84,0.0,2.0,71,0.00,,,0.00,Wunderground v.1.15,2013-07-15 09:18:00,
2013-07-15 02:24:00,59.6,50.2,30.09,ENE,69,3.0,3.0,71,0.00,,,0.00,Wunderground v.1.15,2013-07-15 09:24:00,
2013-07-15 02:29:00,59.5,50.1,30.10,East,90,0.0,3.0,71,0.00,,,0.00,Wunderground v.1.15,2013-07-15 09:29:00,
2013-07-15 02:35:00,59.4,50.4,30.10,ESE,104,0.0,1.0,72,0.00,,,0.00,Wunderground v.1.15,2013-07-15 09:35:00,
2013-07-15 02:41:00,59.4,50.4,30.09,ESE,102,0.0,0.0,72,0.00,,,0.00,Wunderground v.1.15,2013-07-15 09:41:00,
2013-07-15 02:47:00,59.4,50.4,30.09,ENE,78,0.0,2.0,72,0.00,,,0.00,Wunderground v.1.15,2013-07-15 09:47:00,
2013-07-15 02:52:00,59.3,50.3,30.10,East,83,0.0,1.0,72,0.00,,,0.00,Wunderground v.1.15,2013-07-15 09:52:00,
2013-07-15 02:58:00,59.2,50.2,30.10,East,89,1.0,2.0,72,0.00,,,0.00,Wunderground v.1.15,2013-07-15 09:58:00,
2013-07-15 03:04:00,59.1,49.7,30.10,East,84,1.0,3.0,71,0.00,,,0.00,Wunderground v.1.15,2013-07-15 10:04:00,
2013-07-15 03:10:00,59.0,50.0,30.10,East,98,0.0,1.0,72,0.00,,,0.00,Wunderground v.1.15,2013-07-15 10:10:00,
2013-07-15 03:15:00,59.0,50.0,30.09,ESE,108,0.0,2.0,72,0.00,,,0.00,Wunderground v.1.15,2013-07-15 10:15:00,
2013-07-15 03:21:00,58.9,50.3,30.10,ESE,106,0.0,0.0,73,0.00,,,0.00,Wunderground v.1.15,2013-07-15 10:21:00,
2013-07-15 03:27:00,58.6,50.0,30.10,ESE,102,0.0,3.0,73,0.00,,,0.00,Wunderground v.1.15,2013-07-15 10:27:00,
2013-07-15 03:32:00,58.4,49.8,30.10,ENE,68,2.0,2.0,73,0.00,,,0.00,Wunderground v.1.15,2013-07-15 10:32:00,
2013-07-15 03:38:00,58.3,50.0,30.10,East,85,2.0,2.0,74,0.00,,,0.00,Wunderground v.1.15,2013-07-15 10:38:00,
2013-07-15 03:44:00,58.2,50.0,30.10,NE,44,0.0,3.0,74,0.00,,,0.00,Wunderground v.1.15,2013-07-15 10:44:00,
2013-07-15 03:50:00,58.0,49.8,30.10,NE,50,0.0,0.0,74,0.00,,,0.00,Wunderground v.1.15,2013-07-15 10:50:00,
2013-07-15 03:55:00,57.9,49.7,30.10,ENE,60,4.0,4.0,74,0.00,,,0.00,Wunderground v.1.15,2013-07-15 10:55:00,
2013-07-15 04:01:00,57.8,49.9,30.10,ENE,67,0.0,0.0,75,0.00,,,0.00,Wunderground v.1.15,2013-07-15 11:01:00,
2013-07-15 04:07:00,57.7,49.8,30.10,East,98,1.0,1.0,75,0.00,,,0.00,Wunderground v.1.15,2013-07-15 11:07:00,
2013-07-15 04:12:00,57.6,49.7,30.10,East,98,0.0,0.0,75,0.00,,,0.00,Wunderground v.1.15,2013-07-15 11:12:00,
2013-07-15 04:18:00,57.5,50.0,30.10,North,5,5.0,5.0,76,0.00,,,0.00,Wunderground v.1.15,2013-07-15 11:18:00,
2013-07-15 04:24:00,57.5,50.3,30.10,North,11,0.0,1.0,77,0.00,,,0.00,Wunderground v.1.15,2013-07-15 11:24:00,
2013-07-15 04:30:00,57.5,50.3,30.10,NE,38,0.0,0.0,77,0.00,,,0.00,Wunderground v.1.15,2013-07-15 11:30:00,
2013-07-15 04:36:00,57.5,50.3,30.10,NNE,33,0.0,1.0,77,0.00,,,0.00,Wunderground v.1.15,2013-07-15 11:36:00,
2013-07-15 04:41:00,57.4,50.2,30.10,NNE,32,1.0,1.0,77,0.00,,,0.00,Wunderground v.1.15,2013-07-15 11:41:00,
2013-07-15 04:47:00,57.4,50.2,30.10,NE,51,0.0,3.0,77,0.00,,,0.00,Wunderground v.1.15,2013-07-15 11:47:00,
2013-07-15 04:53:00,57.4,50.2,30.10,NE,50,0.0,0.0,77,0.00,,,0.00,Wunderground v.1.15,2013-07-15 11:53:00,
2013-07-15 04:58:00,57.3,50.1,30.11,NE,53,0.0,0.0,77,0.00,,,0.00,Wunderground v.1.15,2013-07-15 11:58:00,
2013-07-15 05:04:00,57.2,50.1,30.10,NE,51,0.0,0.0,77,0.00,,,0.00,Wunderground v.1.15,2013-07-15 12:04:00,
2013-07-15 05:10:00,57.1,50.0,30.10,NE,51,0.0,0.0,77,0.00,,,0.00,Wunderground v.1.15,2013-07-15 12:10:00,
2013-07-15 05:16:00,57.0,49.9,30.10,NE,50,0.0,0.0,77,0.00,,,0.00,Wunderground v.1.15,2013-07-15 12:16:00,
2013-07-15 05:21:00,57.0,49.9,30.11,NE,46,0.0,0.0,77,0.00,,,0.00,Wunderground v.1.15,2013-07-15 12:21:00,
2013-07-15 05:27:00,56.9,50.1,30.11,NE,47,0.0,0.0,78,0.00,,,0.00,Wunderground v.1.15,2013-07-15 12:27:00,
2013-07-15 05:33:00,56.9,50.1,30.11,NE,49,1.0,1.0,78,0.00,,,0.00,Wunderground v.1.15,2013-07-15 12:33:00,
2013-07-15 05:38:00,56.8,50.0,30.11,NE,49,0.0,3.0,78,0.00,,,0.00,Wunderground v.1.15,2013-07-15 12:38:00,
2013-07-15 05:44:00,56.7,49.9,30.11,NE,49,0.0,0.0,78,0.00,,,0.00,Wunderground v.1.15,2013-07-15 12:44:00,
2013-07-15 05:50:00,56.7,49.9,30.11,NE,49,0.0,0.0,78,0.00,,,0.00,Wunderground v.1.15,2013-07-15 12:50:00,
2013-07-15 05:55:00,56.6,49.8,30.11,NE,47,0.0,0.0,78,0.00,,,0.00,Wunderground v.1.15,2013-07-15 12:55:00,
2013-07-15 06:01:00,56.6,50.2,30.11,NE,42,2.0,2.0,79,0.00,,,0.00,Wunderground v.1.15,2013-07-15 13:01:00,
2013-07-15 06:07:00,56.7,50.6,30.11,NE,34,0.0,2.0,80,0.00,,,0.00,Wunderground v.1.15,2013-07-15 13:07:00,
2013-07-15 06:13:00,56.7,50.6,30.11,NE,36,0.0,0.0,80,0.00,,,0.00,Wunderground v.1.15,2013-07-15 13:13:00,
2013-07-15 06:18:00,56.9,51.1,30.11,North,355,1.0,3.0,81,0.00,,,0.00,Wunderground v.1.15,2013-07-15 13:18:00,
2013-07-15 06:24:00,57.1,51.3,30.11,NW,317,1.0,3.0,81,0.00,,,0.00,Wunderground v.1.15,2013-07-15 13:24:00,
2013-07-15 06:30:00,57.1,51.3,30.11,NNW,331,1.0,2.0,81,0.00,,,0.00,Wunderground v.1.15,2013-07-15 13:30:00,
2013-07-15 06:36:00,57.2,51.4,30.11,NNW,330,0.0,3.0,81,0.00,,,0.00,Wunderground v.1.15,2013-07-15 13:36:00,
2013-07-15 06:41:00,57.3,51.5,30.11,NNW,328,2.0,3.0,81,0.00,,,0.00,Wunderground v.1.15,2013-07-15 13:41:00,
2013-07-15 06:47:00,57.5,51.7,30.11,NNW,343,0.0,3.0,81,0.00,,,0.00,Wunderground v.1.15,2013-07-15 13:47:00,
2013-07-15 06:53:00,57.7,52.2,30.11,NNE,17,3.0,4.0,82,0.00,,,0.00,Wunderground v.1.15,2013-07-15 13:53:00,
2013-07-15 06:58:00,57.9,52.4,30.11,NW,320,2.0,4.0,82,0.00,,,0.00,Wunderground v.1.15,2013-07-15 13:58:00,
2013-07-15 07:04:00,58.1,52.3,30.11,NNW,336,1.0,5.0,81,0.00,,,0.00,Wunderground v.1.15,2013-07-15 14:04:00,
2013-07-15 07:10:00,58.3,52.5,30.12,NNE,25,0.0,2.0,81,0.00,,,0.00,Wunderground v.1.15,2013-07-15 14:10:00,
2013-07-15 07:16:00,58.5,52.4,30.12,NNE,20,1.0,2.0,80,0.00,,,0.00,Wunderground v.1.15,2013-07-15 14:16:00,
2013-07-15 07:21:00,58.8,52.6,30.12,NNE,23,0.0,1.0,80,0.00,,,0.00,Wunderground v.1.15,2013-07-15 14:21:00,
2013-07-15 07:27:00,59.0,52.1,30.12,NNE,22,2.0,2.0,78,0.00,,,0.00,Wunderground v.1.15,2013-07-15 14:27:00,
2013-07-15 07:33:00,59.3,52.4,30.12,North,351,0.0,2.0,78,0.00,,,0.00,Wunderground v.1.15,2013-07-15 14:33:00,
2013-07-15 07:39:00,59.6,52.4,30.12,NNW,334,2.0,2.0,77,0.00,,,0.00,Wunderground v.1.15,2013-07-15 14:39:00,
2013-07-15 07:45:00,59.9,52.3,30.12,NNW,335,1.0,1.0,76,0.00,,,0.00,Wunderground v.1.15,2013-07-15 14:45:00,
2013-07-15 07:50:00,60.2,52.2,30.12,NNW,330,0.0,3.0,75,0.00,,,0.00,Wunderground v.1.15,2013-07-15 14:50:00,
2013-07-15 07:55:00,60.5,52.5,30.11,NNW,334,0.0,0.0,75,0.00,,,0.00,Wunderground v.1.15,2013-07-15 14:55:00,
2013-07-15 08:00:00,60.8,52.5,30.12,NW,325,0.0,0.0,74,0.00,,,0.00,Wunderground v.1.15,2013-07-15 15:00:00,
2013-07-15 08:05:00,61.1,52.4,30.12,NW,326,0.0,2.0,73,0.00,,,0.00,Wunderground v.1.15,2013-07-15 15:05:00,
2013-07-15 08:10:00,61.4,52.7,30.12,NNE,22,3.0,3.0,73,0.00,,,0.00,Wunderground v.1.15,2013-07-15 15:10:00,
2013-07-15 08:15:00,61.8,52.7,30.11,NW,320,2.0,3.0,72,0.00,,,0.00,Wunderground v.1.15,2013-07-15 15:15:00,
2013-07-15 08:20:00,62.0,52.9,30.11,North,349,1.0,3.0,72,0.00,,,0.00,Wunderground v.1.15,2013-07-15 15:20:00,
2013-07-15 08:26:00,62.2,53.1,30.11,WNW,298,1.0,4.0,72,0.00,,,0.00,Wunderground v.1.15,2013-07-15 15:26:00,
2013-07-15 08:31:00,62.5,53.7,30.11,NNW,342,1.0,2.0,73,0.00,,,0.00,Wunderground v.1.15,2013-07-15 15:31:00,
2013-07-15 08:36:00,62.8,53.6,30.11,NW,316,2.0,4.0,72,0.00,,,0.00,Wunderground v.1.15,2013-07-15 15:36:00,
2013-07-15 08:41:00,63.1,54.3,30.11,WNW,302,3.0,3.0,73,0.00,,,0.00,Wunderground v.1.15,2013-07-15 15:41:00,
2013-07-15 08:46:00,63.4,55.0,30.11,NE,34,4.0,5.0,74,0.00,,,0.00,Wunderground v.1.15,2013-07-15 15:46:00,
2013-07-15 08:51:00,63.8,55.0,30.11,NNE,13,7.0,7.0,73,0.00,,,0.00,Wunderground v.1.15,2013-07-15 15:51:00,
2013-07-15 08:56:00,64.1,55.3,30.11,NNW,334,2.0,9.0,73,0.00,,,0.00,Wunderground v.1.15,2013-07-15 15:56:00,
2013-07-15 09:02:00,64.3,55.5,30.11,NNE,22,5.0,5.0,73,0.00,,,0.00,Wunderground v.1.15,2013-07-15 16:02:00,
2013-07-15 09:07:00,64.5,56.0,30.11,North,11,2.0,5.0,74,0.00,,,0.00,Wunderground v.1.15,2013-07-15 16:07:00,
2013-07-15 09:12:00,64.8,56.3,30.10,WNW,299,5.0,9.0,74,0.00,,,0.00,Wunderground v.1.15,2013-07-15 16:12:00,
2013-07-15 09:17:00,65.2,56.7,30.10,NNE,26,5.0,12.0,74,0.00,,,0.00,Wunderground v.1.15,2013-07-15 16:17:00,
2013-07-15 09:22:00,65.5,56.2,30.10,NNE,19,8.0,12.0,72,0.00,,,0.00,Wunderground v.1.15,2013-07-15 16:22:00,
2013-07-15 09:28:00,65.6,56.7,30.10,North,5,6.0,12.0,73,0.00,,,0.00,Wunderground v.1.15,2013-07-15 16:28:00,
2013-07-15 09:32:00,65.8,56.1,30.10,NNE,15,6.0,9.0,71,0.00,,,0.00,Wunderground v.1.15,2013-07-15 16:32:00,
2013-07-15 09:38:00,65.9,55.8,30.10,North,9,6.0,10.0,70,0.00,,,0.00,Wunderground v.1.15,2013-07-15 16:38:00,
2013-07-15 09:43:00,66.0,55.9,30.10,North,11,8.0,9.0,70,0.00,,,0.00,Wunderground v.1.15,2013-07-15 16:43:00,
2013-07-15 09:48:00,66.3,55.8,30.10,North,9,6.0,9.0,69,0.00,,,0.00,Wunderground v.1.15,2013-07-15 16:48:00,
2013-07-15 09:53:00,66.6,56.1,30.10,North,5,8.0,8.0,69,0.00,,,0.00,Wunderground v.1.15,2013-07-15 16:53:00,
2013-07-15 09:58:00,66.9,56.4,30.10,North,5,6.0,11.0,69,0.00,,,0.00,Wunderground v.1.15,2013-07-15 16:58:00,
2013-07-15 10:04:00,67.2,56.3,30.09,North,11,5.0,7.0,68,0.00,,,0.00,Wunderground v.1.15,2013-07-15 17:04:00,
2013-07-15 10:09:00,67.5,56.2,30.10,NNE,27,5.0,10.0,67,0.00,,,0.00,Wunderground v.1.15,2013-07-15 17:09:00,
2013-07-15 10:15:00,67.9,56.1,30.09,WNW,302,7.0,8.0,66,0.00,,,0.00,Wunderground v.1.15,2013-07-15 17:15:00,
2013-07-15 10:20:00,68.3,56.1,30.10,North,349,7.0,7.0,65,0.00,,,0.00,Wunderground v.1.15,2013-07-15 17:20:00,
2013-07-15 10:25:00,68.6,56.4,30.09,WNW,282,6.0,10.0,65,0.00,,,0.00,Wunderground v.1.15,2013-07-15 17:25:00,
2013-07-15 10:30:00,68.8,56.1,30.10,WNW,288,6.0,6.0,64,0.00,,,0.00,Wunderground v.1.15,2013-07-15 17:30:00,
2013-07-15 10:35:00,68.9,55.8,30.10,North,360,5.0,10.0,63,0.00,,,0.00,Wunderground v.1.15,2013-07-15 17:35:00,
2013-07-15 10:40:00,69.0,55.9,30.10,NNW,333,6.0,11.0,63,0.00,,,0.00,Wunderground v.1.15,2013-07-15 17:40:00,
2013-07-15 10:45:00,69.2,56.1,30.09,North,360,9.0,12.0,63,0.00,,,0.00,Wunderground v.1.15,2013-07-15 17:45:00,
2013-07-15 10:50:00,69.4,56.3,30.09,North,351,4.0,9.0,63,0.00,,,0.00,Wunderground v.1.15,2013-07-15 17:50:00,
2013-07-15 10:55:00,69.6,56.4,30.09,NW,315,2.0,10.0,63,0.00,,,0.00,Wunderground v.1.15,2013-07-15 17:55:00,
2013-07-15 11:01:00,69.8,56.2,30.09,NNW,341,10.0,10.0,62,0.00,,,0.00,Wunderground v.1.15,2013-07-15 18:01:00,
2013-07-15 11:06:00,69.9,55.8,30.09,NNE,19,7.0,10.0,61,0.00,,,0.00,Wunderground v.1.15,2013-07-15 18:06:00,
2013-07-15 11:11:00,70.0,56.4,30.10,North,355,3.0,7.0,62,0.00,,,0.00,Wunderground v.1.15,2013-07-15 18:11:00,
2013-07-15 11:16:00,70.2,56.6,30.09,NNW,334,3.0,11.0,62,0.00,,,0.00,Wunderground v.1.15,2013-07-15 18:16:00,
2013-07-15 11:21:00,70.3,55.8,30.09,NW,325,4.0,7.0,60,0.00,,,0.00,Wunderground v.1.15,2013-07-15 18:21:00,
2013-07-15 11:26:00,70.5,56.4,30.09,NNW,327,1.0,7.0,61,0.00,,,0.00,Wunderground v.1.15,2013-07-15 18:26:00,
2013-07-15 11:32:00,70.9,56.3,30.09,WNW,300,5.0,5.0,60,0.00,,,0.00,Wunderground v.1.15,2013-07-15 18:32:00,
2013-07-15 11:37:00,71.1,56.0,30.09,NW,312,7.0,8.0,59,0.00,,,0.00,Wunderground v.1.15,2013-07-15 18:37:00,
2013-07-15 11:43:00,71.3,55.8,30.08,NW,323,7.0,7.0,58,0.00,,,0.00,Wunderground v.1.15,2013-07-15 18:43:00,
2013-07-15 11:48:00,71.5,55.5,30.09,WNW,294,1.0,7.0,57,0.00,,,0.00,Wunderground v.1.15,2013-07-15 18:48:00,
2013-07-15 11:53:00,71.7,56.1,30.08,NNW,338,5.0,9.0,58,0.00,,,0.00,Wunderground v.1.15,2013-07-15 18:53:00,
2013-07-15 11:58:00,71.9,56.8,30.08,NE,38,3.0,9.0,59,0.00,,,0.00,Wunderground v.1.15,2013-07-15 18:58:00,
2013-07-15 12:03:00,72.0,55.9,30.08,North,5,9.0,9.0,57,0.00,,,0.00,Wunderground v.1.15,2013-07-15 19:03:00,
2013-07-15 12:09:00,71.9,56.3,30.08,NNW,336,4.0,11.0,58,0.00,,,0.00,Wunderground v.1.15,2013-07-15 19:09:00,
2013-07-15 12:14:00,72.1,56.5,30.08,ESE,109,1.0,9.0,58,0.00,,,0.00,Wunderground v.1.15,2013-07-15 19:14:00,
2013-07-15 12:19:00,72.4,56.8,30.08,North,351,5.0,9.0,58,0.00,,,0.00,Wunderground v.1.15,2013-07-15 19:19:00,
2013-07-15 12:24:00,72.6,57.0,30.08,NNW,333,3.0,10.0,58,0.00,,,0.00,Wunderground v.1.15,2013-07-15 19:24:00,
2013-07-15 12:29:00,72.8,56.7,30.08,NNW,337,7.0,10.0,57,0.00,,,0.00,Wunderground v.1.15,2013-07-15 19:29:00,
2013-07-15 12:34:00,73.1,56.0,30.08,NW,324,3.0,4.0,55,0.00,,,0.00,Wunderground v.1.15,2013-07-15 19:34:00,
2013-07-15 12:39:00,73.3,56.2,30.08,NW,321,4.0,11.0,55,0.00,,,0.00,Wunderground v.1.15,2013-07-15 19:39:00,
2013-07-15 12:44:00,73.4,56.2,30.07,North,350,4.0,5.0,55,0.00,,,0.00,Wunderground v.1.15,2013-07-15 19:44:00,
2013-07-15 12:49:00,73.7,56.5,30.07,North,360,3.0,8.0,55,0.00,,,0.00,Wunderground v.1.15,2013-07-15 19:49:00,
2013-07-15 12:54:00,74.1,57.4,30.07,NNW,344,4.0,4.0,56,0.00,,,0.00,Wunderground v.1.15,2013-07-15 19:54:00,
2013-07-15 12:59:00,74.2,58.0,30.07,North,355,7.0,12.0,57,0.00,,,0.00,Wunderground v.1.15,2013-07-15 19:59:00,
2013-07-15 13:04:00,74.1,56.4,30.06,North,355,7.0,13.0,54,0.00,,,0.00,Wunderground v.1.15,2013-07-15 20:04:00,
2013-07-15 13:10:00,74.1,56.9,30.07,NNW,338,5.0,13.0,55,0.00,,,0.00,Wunderground v.1.15,2013-07-15 20:10:00,
2013-07-15 13:15:00,74.2,56.5,30.07,North,355,12.0,12.0,54,0.00,,,0.00,Wunderground v.1.15,2013-07-15 20:15:00,
2013-07-15 13:20:00,74.2,56.0,30.07,NNE,23,0.0,7.0,53,0.00,,,0.00,Wunderground v.1.15,2013-07-15 20:20:00,
2013-07-15 13:25:00,74.3,56.1,30.07,NW,310,8.0,11.0,53,0.00,,,0.00,Wunderground v.1.15,2013-07-15 20:25:00,
2013-07-15 13:30:00,74.4,56.7,30.07,NNW,331,6.0,7.0,54,0.00,,,0.00,Wunderground v.1.15,2013-07-15 20:30:00,
2013-07-15 13:35:00,74.4,55.6,30.06,North,360,5.0,10.0,52,0.00,,,0.00,Wunderground v.1.15,2013-07-15 20:35:00,
2013-07-15 13:40:00,74.6,56.3,30.06,NNW,329,9.0,11.0,53,0.00,,,0.00,Wunderground v.1.15,2013-07-15 20:40:00,
2013-07-15 13:46:00,74.4,56.7,30.06,North,349,9.0,13.0,54,0.00,,,0.00,Wunderground v.1.15,2013-07-15 20:46:00,
2013-07-15 13:51:00,74.2,55.4,30.06,North,350,3.0,8.0,52,0.00,,,0.00,Wunderground v.1.15,2013-07-15 20:51:00,
2013-07-15 13:56:00,74.6,56.9,30.06,NNE,31,8.0,10.0,54,0.00,,,0.00,Wunderground v.1.15,2013-07-15 20:56:00,
2013-07-15 14:01:00,74.8,56.5,30.06,NNW,348,6.0,10.0,53,0.00,,,0.00,Wunderground v.1.15,2013-07-15 21:01:00,
2013-07-15 14:06:00,75.1,57.3,30.06,North,5,5.0,11.0,54,0.00,,,0.00,Wunderground v.1.15,2013-07-15 21:06:00,
2013-07-15 14:11:00,75.1,56.3,30.05,North,360,7.0,11.0,52,0.00,,,0.00,Wunderground v.1.15,2013-07-15 21:11:00,
2013-07-15 14:17:00,75.2,56.9,30.05,NNE,23,10.0,11.0,53,0.00,,,0.00,Wunderground v.1.15,2013-07-15 21:17:00,
2013-07-15 14:23:00,75.4,57.1,30.05,NNE,15,5.0,12.0,53,0.00,,,0.00,Wunderground v.1.15,2013-07-15 21:23:00,
2013-07-15 14:28:00,75.5,57.2,30.04,West,277,5.0,12.0,53,0.00,,,0.00,Wunderground v.1.15,2013-07-15 21:28:00,
2013-07-15 14:34:00,75.8,56.4,30.04,NW,325,10.0,13.0,51,0.00,,,0.00,Wunderground v.1.15,2013-07-15 21:34:00,
2013-07-15 14:39:00,75.8,57.4,30.04,NNW,342,6.0,13.0,53,0.00,,,0.00,Wunderground v.1.15,2013-07-15 21:39:00,
2013-07-15 14:44:00,75.9,57.0,30.04,NNW,335,9.0,11.0,52,0.00,,,0.00,Wunderground v.1.15,2013-07-15 21:44:00,
2013-07-15 14:49:00,76.1,56.1,30.04,NNE,18,6.0,12.0,50,0.00,,,0.00,Wunderground v.1.15,2013-07-15 21:49:00,
2013-07-15 14:55:00,76.2,56.7,30.04,NW,324,7.0,10.0,51,0.00,,,0.00,Wunderground v.1.15,2013-07-15 21:55:00,
2013-07-15 15:00:00,76.1,55.5,30.04,NW,305,10.0,10.0,49,0.00,,,0.00,Wunderground v.1.15,2013-07-15 22:00:00,
2013-07-15 15:05:00,76.3,56.3,30.03,NW,304,6.0,12.0,50,0.00,,,0.00,Wunderground v.1.15,2013-07-15 22:05:00,
2013-07-15 15:10:00,76.4,56.4,30.03,NW,321,9.0,11.0,50,0.00,,,0.00,Wunderground v.1.15,2013-07-15 22:10:00,
2013-07-15 15:15:00,76.5,55.3,30.03,NNW,337,7.0,13.0,48,0.00,,,0.00,Wunderground v.1.15,2013-07-15 22:15:00,
2013-07-15 15:20:00,76.4,55.8,30.02,North,355,7.0,13.0,49,0.00,,,0.00,Wunderground v.1.15,2013-07-15 22:20:00,
2013-07-15 15:26:00,76.3,56.3,30.03,North,360,10.0,13.0,50,0.00,,,0.00,Wunderground v.1.15,2013-07-15 22:26:00,
2013-07-15 15:30:00,76.3,56.8,30.02,NNE,23,7.0,11.0,51,0.00,,,0.00,Wunderground v.1.15,2013-07-15 22:30:00,
2013-07-15 15:36:00,76.5,57.0,30.02,North,5,10.0,11.0,51,0.00,,,0.00,Wunderground v.1.15,2013-07-15 22:36:00,
2013-07-15 15:41:00,76.4,56.4,30.02,NNW,331,4.0,9.0,50,0.00,,,0.00,Wunderground v.1.15,2013-07-15 22:41:00,
2013-07-15 15:46:00,76.5,56.5,30.02,NNE,24,11.0,11.0,50,0.00,,,0.00,Wunderground v.1.15,2013-07-15 22:46:00,
2013-07-15 15:52:00,76.4,55.3,30.01,NW,305,10.0,12.0,48,0.00,,,0.00,Wunderground v.1.15,2013-07-15 22:52:00,
2013-07-15 15:57:00,76.5,55.3,30.01,West,265,13.0,14.0,48,0.00,,,0.00,Wunderground v.1.15,2013-07-15 22:57:00,
2013-07-15 16:02:00,76.6,55.4,30.01,North,360,8.0,14.0,48,0.00,,,0.00,Wunderground v.1.15,2013-07-15 23:02:00,
2013-07-15 16:07:00,76.6,54.9,30.01,NNW,342,11.0,14.0,47,0.00,,,0.00,Wunderground v.1.15,2013-07-15 23:07:00,
2013-07-15 16:12:00,76.7,55.5,30.01,NNE,17,7.0,13.0,48,0.00,,,0.00,Wunderground v.1.15,2013-07-15 23:12:00,
2013-07-15 16:17:00,76.7,55.0,30.01,North,5,14.0,14.0,47,0.00,,,0.00,Wunderground v.1.15,2013-07-15 23:17:00,
2013-07-15 16:22:00,76.8,55.0,30.01,North,355,13.0,16.0,47,0.00,,,0.00,Wunderground v.1.15,2013-07-15 23:22:00,
2013-07-15 16:27:00,76.8,55.0,30.00,NW,324,9.0,16.0,47,0.00,,,0.00,Wunderground v.1.15,2013-07-15 23:27:00,
2013-07-15 16:33:00,76.8,55.6,30.00,SW,219,2.0,11.0,48,0.00,,,0.00,Wunderground v.1.15,2013-07-15 23:33:00,
2013-07-15 16:38:00,77.0,55.2,30.00,North,9,6.0,13.0,47,0.00,,,0.00,Wunderground v.1.15,2013-07-15 23:38:00,
2013-07-15 16:43:00,76.9,55.7,30.00,NW,313,6.0,13.0,48,0.00,,,0.00,Wunderground v.1.15,2013-07-15 23:43:00,
2013-07-15 16:48:00,76.9,55.7,29.99,NNE,27,9.0,16.0,48,0.00,,,0.00,Wunderground v.1.15,2013-07-15 23:48:00,
2013-07-15 16:53:00,76.8,55.0,29.99,West,281,4.0,14.0,47,0.00,,,0.00,Wunderground v.1.15,2013-07-15 23:53:00,
2013-07-15 16:58:00,76.9,56.8,29.99,ENE,57,8.0,14.0,50,0.00,,,0.00,Wunderground v.1.15,2013-07-15 23:58:00,
2013-07-15 17:03:00,77.0,57.5,29.99,North,5,10.0,11.0,51,0.00,,,0.00,Wunderground v.1.15,2013-07-16 00:03:00,
2013-07-15 17:08:00,77.1,55.3,29.99,NNW,341,10.0,14.0,47,0.00,,,0.00,Wunderground v.1.15,2013-07-16 00:08:00,
2013-07-15 17:13:00,77.0,54.6,29.99,NW,324,10.0,13.0,46,0.00,,,0.00,Wunderground v.1.15,2013-07-16 00:13:00,
2013-07-15 17:19:00,77.0,54.6,29.98,North,9,7.0,15.0,46,0.00,,,0.00,Wunderground v.1.15,2013-07-16 00:19:00,
2013-07-15 17:24:00,77.0,55.2,29.98,NNW,343,13.0,13.0,47,0.00,,,0.00,Wunderground v.1.15,2013-07-16 00:24:00,
2013-07-15 17:29:00,77.0,55.8,29.98,NW,326,11.0,13.0,48,0.00,,,0.00,Wunderground v.1.15,2013-07-16 00:29:00,
2013-07-15 17:35:00,77.1,54.1,29.98,NNW,342,13.0,15.0,45,0.00,,,0.00,Wunderground v.1.15,2013-07-16 00:35:00,
2013-07-15 17:40:00,77.1,54.7,29.97,NE,36,11.0,15.0,46,0.00,,,0.00,Wunderground v.1.15,2013-07-16 00:40:00,
2013-07-15 17:45:00,77.2,54.8,29.97,NW,326,7.0,11.0,46,0.00,,,0.00,Wunderground v.1.15,2013-07-16 00:45:00,
2013-07-15 17:50:00,77.3,54.9,29.97,NNE,14,10.0,14.0,46,0.00,,,0.00,Wunderground v.1.15,2013-07-16 00:50:00,
2013-07-15 17:55:00,77.2,55.4,29.97,North,360,7.0,14.0,47,0.00,,,0.00,Wunderground v.1.15,2013-07-16 00:55:00,
2013-07-15 18:00:00,77.1,55.3,29.97,NNW,338,7.0,9.0,47,0.00,,,0.00,Wunderground v.1.15,2013-07-16 01:00:00,
2013-07-15 18:06:00,77.1,54.1,29.97,North,351,9.0,13.0,45,0.00,,,0.00,Wunderground v.1.15,2013-07-16 01:06:00,
2013-07-15 18:11:00,77.1,54.1,29.97,NW,309,9.0,11.0,45,0.00,,,0.00,Wunderground v.1.15,2013-07-16 01:11:00,
2013-07-15 18:16:00,77.1,54.7,29.97,NW,323,12.0,13.0,46,0.00,,,0.00,Wunderground v.1.15,2013-07-16 01:16:00,
2013-07-15 18:21:00,77.1,54.1,29.97,North,355,3.0,10.0,45,0.00,,,0.00,Wunderground v.1.15,2013-07-16 01:21:00,
2013-07-15 18:26:00,77.1,55.9,29.97,NW,304,10.0,11.0,48,0.00,,,0.00,Wunderground v.1.15,2013-07-16 01:26:00,
2013-07-15 18:31:00,76.9,54.5,29.97,North,355,8.0,11.0,46,0.00,,,0.00,Wunderground v.1.15,2013-07-16 01:31:00,
2013-07-15 18:36:00,76.9,56.8,29.96,North,355,11.0,11.0,50,0.00,,,0.00,Wunderground v.1.15,2013-07-16 01:36:00,
2013-07-15 18:41:00,76.6,56.0,29.96,NNW,329,11.0,12.0,49,0.00,,,0.00,Wunderground v.1.15,2013-07-16 01:41:00,
2013-07-15 18:46:00,76.3,55.7,29.96,North,5,10.0,14.0,49,0.00,,,0.00,Wunderground v.1.15,2013-07-16 01:46:00,
2013-07-15 18:51:00,76.1,55.0,29.96,NNW,337,8.0,12.0,48,0.00,,,0.00,Wunderground v.1.15,2013-07-16 01:51:00,
2013-07-15 18:56:00,76.0,55.5,29.96,NW,320,7.0,13.0,49,0.00,,,0.00,Wunderground v.1.15,2013-07-16 01:56:00,
2013-07-15 19:01:00,75.9,55.4,29.96,NNW,341,6.0,9.0,49,0.00,,,0.00,Wunderground v.1.15,2013-07-16 02:01:00,
2013-07-15 19:06:00,75.9,55.9,29.96,North,5,7.0,11.0,50,0.00,,,0.00,Wunderground v.1.15,2013-07-16 02:06:00,
2013-07-15 19:11:00,75.8,55.8,29.96,WNW,302,2.0,12.0,50,0.00,,,0.00,Wunderground v.1.15,2013-07-16 02:11:00,
2013-07-15 19:16:00,75.8,54.7,29.96,NW,309,6.0,12.0,48,0.00,,,0.00,Wunderground v.1.15,2013-07-16 02:16:00,
2013-07-15 19:22:00,75.8,55.3,29.96,NNW,329,6.0,7.0,49,0.00,,,0.00,Wunderground v.1.15,2013-07-16 02:22:00,
2013-07-15 19:27:00,75.8,53.5,29.96,NW,325,5.0,12.0,46,0.00,,,0.00,Wunderground v.1.15,2013-07-16 02:27:00,
2013-07-15 19:32:00,75.8,55.3,29.96,NNW,338,2.0,10.0,49,0.00,,,0.00,Wunderground v.1.15,2013-07-16 02:32:00,
2013-07-15 19:38:00,75.6,55.1,29.96,NW,309,9.0,11.0,49,0.00,,,0.00,Wunderground v.1.15,2013-07-16 02:38:00,
2013-07-15 19:43:00,75.4,54.9,29.96,NNW,327,6.0,14.0,49,0.00,,,0.00,Wunderground v.1.15,2013-07-16 02:43:00,
2013-07-15 19:48:00,75.2,56.4,29.96,NNW,328,6.0,14.0,52,0.00,,,0.00,Wunderground v.1.15,2013-07-16 02:48:00,
2013-07-15 19:54:00,74.9,55.0,29.96,North,5,10.0,12.0,50,0.00,,,0.00,Wunderground v.1.15,2013-07-16 02:54:00,
2013-07-15 19:59:00,74.7,53.7,29.96,North,355,9.0,12.0,48,0.00,,,0.00,Wunderground v.1.15,2013-07-16 02:59:00,
2013-07-15 20:04:00,74.6,54.2,29.96,North,5,11.0,12.0,49,0.00,,,0.00,Wunderground v.1.15,2013-07-16 03:04:00,
2013-07-15 20:09:00,74.4,53.4,29.96,NNW,338,6.0,12.0,48,0.00,,,0.00,Wunderground v.1.15,2013-07-16 03:09:00,
2013-07-15 20:14:00,74.3,52.8,29.96,NW,319,2.0,9.0,47,0.00,,,0.00,Wunderground v.1.15,2013-07-16 03:14:00,
2013-07-15 20:19:00,74.2,52.7,29.97,WNW,289,1.0,11.0,47,0.00,,,0.00,Wunderground v.1.15,2013-07-16 03:19:00,
2013-07-15 20:24:00,74.1,53.2,29.97,North,5,6.0,7.0,48,0.00,,,0.00,Wunderground v.1.15,2013-07-16 03:24:00,
2013-07-15 20:29:00,74.0,52.5,29.97,NNW,333,5.0,7.0,47,0.00,,,0.00,Wunderground v.1.15,2013-07-16 03:29:00,
2013-07-15 20:34:00,73.9,53.5,29.96,NNE,30,7.0,10.0,49,0.00,,,0.00,Wunderground v.1.15,2013-07-16 03:34:00,
2013-07-15 20:39:00,73.6,53.8,29.96,NNE,32,9.0,12.0,50,0.00,,,0.00,Wunderground v.1.15,2013-07-16 03:39:00,
2013-07-15 20:44:00,73.4,54.2,29.96,North,360,5.0,12.0,51,0.00,,,0.00,Wunderground v.1.15,2013-07-16 03:44:00,
2013-07-15 20:49:00,73.3,55.1,29.96,NNE,22,5.0,12.0,53,0.00,,,0.00,Wunderground v.1.15,2013-07-16 03:49:00,
2013-07-15 20:55:00,73.0,53.8,29.96,NNE,29,2.0,7.0,51,0.00,,,0.00,Wunderground v.1.15,2013-07-16 03:55:00,
2013-07-15 21:00:00,72.8,53.1,29.96,NNE,31,1.0,7.0,50,0.00,,,0.00,Wunderground v.1.15,2013-07-16 04:00:00,
2013-07-15 21:01:00,72.7,52.4,29.96,NNE,14,0.0,4.0,49,0.00,,,0.00,Wunderground v.1.15,2013-07-16 04:01:00,
2013-07-15 21:06:00,72.5,51.1,29.96,NE,38,1.0,6.0,47,0.00,,,0.00,Wunderground v.1.15,2013-07-16 04:06:00,
2013-07-15 21:11:00,72.4,51.6,29.96,NNE,28,1.0,4.0,48,0.00,,,0.00,Wunderground v.1.15,2013-07-16 04:11:00,
2013-07-15 21:16:00,72.4,51.0,29.96,ENE,61,0.0,4.0,47,0.00,,,0.00,Wunderground v.1.15,2013-07-16 04:16:00,
2013-07-15 21:21:00,72.2,51.4,29.96,NNE,23,0.0,1.0,48,0.00,,,0.00,Wunderground v.1.15,2013-07-16 04:21:00,
2013-07-15 21:26:00,72.1,51.3,29.96,NNE,31,0.0,2.0,48,0.00,,,0.00,Wunderground v.1.15,2013-07-16 04:26:00,
2013-07-15 21:31:00,71.9,51.1,29.97,NE,43,1.0,2.0,48,0.00,,,0.00,Wunderground v.1.15,2013-07-16 04:31:00,
2013-07-15 21:36:00,71.6,50.3,29.97,NE,40,1.0,2.0,47,0.00,,,0.00,Wunderground v.1.15,2013-07-16 04:36:00,
2013-07-15 21:41:00,71.4,50.1,29.97,NE,41,0.0,2.0,47,0.00,,,0.00,Wunderground v.1.15,2013-07-16 04:41:00,
2013-07-15 21:46:00,71.3,51.7,29.97,NE,41,0.0,2.0,50,0.00,,,0.00,Wunderground v.1.15,2013-07-16 04:46:00,
2013-07-15 21:51:00,71.0,50.3,29.97,NNE,32,2.0,5.0,48,0.00,,,0.00,Wunderground v.1.15,2013-07-16 04:51:00,
2013-07-15 21:56:00,70.9,51.3,29.97,NE,36,0.0,5.0,50,0.00,,,0.00,Wunderground v.1.15,2013-07-16 04:56:00,
2013-07-15 22:01:00,70.8,51.8,29.97,NE,34,0.0,1.0,51,0.00,,,0.00,Wunderground v.1.15,2013-07-16 05:01:00,
2013-07-15 22:06:00,70.6,51.6,29.97,NE,36,0.0,2.0,51,0.00,,,0.00,Wunderground v.1.15,2013-07-16 05:06:00,
2013-07-15 22:11:00,70.4,51.9,29.97,NE,38,0.0,0.0,52,0.00,,,0.00,Wunderground v.1.15,2013-07-16 05:11:00,
2013-07-15 22:16:00,70.2,52.3,29.97,NE,38,0.0,0.0,53,0.00,,,0.00,Wunderground v.1.15,2013-07-16 05:16:00,
2013-07-15 22:21:00,70.0,52.1,29.97,NNE,32,0.0,3.0,53,0.00,,,0.00,Wunderground v.1.15,2013-07-16 05:21:00,
2013-07-15 22:26:00,69.8,51.4,29.97,NNE,23,0.0,3.0,52,0.00,,,0.00,Wunderground v.1.15,2013-07-16 05:26:00,
2013-07-15 22:31:00,69.6,51.7,29.97,NNE,33,4.0,4.0,53,0.00,,,0.00,Wunderground v.1.15,2013-07-16 05:31:00,
2013-07-15 22:36:00,69.5,52.1,29.97,NNE,30,0.0,4.0,54,0.00,,,0.00,Wunderground v.1.15,2013-07-16 05:36:00,
2013-07-15 22:41:00,69.3,52.4,29.97,NE,34,0.0,1.0,55,0.00,,,0.00,Wunderground v.1.15,2013-07-16 05:41:00,
2013-07-15 22:46:00,69.2,52.8,29.97,NE,38,0.0,2.0,56,0.00,,,0.00,Wunderground v.1.15,2013-07-16 05:46:00,
2013-07-15 22:52:00,69.0,53.1,29.97,NE,38,0.0,0.0,57,0.00,,,0.00,Wunderground v.1.15,2013-07-16 05:52:00,
2013-07-15 22:57:00,68.7,50.9,29.97,NE,51,0.0,2.0,53,0.00,,,0.00,Wunderground v.1.15,2013-07-16 05:57:00,
2013-07-15 23:02:00,68.6,51.8,29.97,NE,52,0.0,0.0,55,0.00,,,0.00,Wunderground v.1.15,2013-07-16 06:02:00,
2013-07-15 23:07:00,68.4,50.6,29.97,ENE,57,0.0,1.0,53,0.00,,,0.00,Wunderground v.1.15,2013-07-16 06:07:00,
2013-07-15 23:12:00,68.3,51.0,29.97,ENE,57,0.0,0.0,54,0.00,,,0.00,Wunderground v.1.15,2013-07-16 06:12:00,
2013-07-15 23:17:00,68.1,49.8,29.97,NE,55,0.0,1.0,52,0.00,,,0.00,Wunderground v.1.15,2013-07-16 06:17:00,
2013-07-15 23:22:00,68.0,50.2,29.97,ENE,59,0.0,0.0,53,0.00,,,0.00,Wunderground v.1.15,2013-07-16 06:22:00,
2013-07-15 23:27:00,67.9,50.1,29.97,NE,53,0.0,0.0,53,0.00,,,0.00,Wunderground v.1.15,2013-07-16 06:27:00,
2013-07-15 23:32:00,67.8,50.5,29.97,NE,55,0.0,0.0,54,0.00,,,0.00,Wunderground v.1.15,2013-07-16 06:32:00,
2013-07-15 23:37:00,67.6,49.9,29.97,NE,55,0.0,0.0,53,0.00,,,0.00,Wunderground v.1.15,2013-07-16 06:37:00,
2013-07-15 23:42:00,67.5,51.7,29.96,NE,55,0.0,0.0,57,0.00,,,0.00,Wunderground v.1.15,2013-07-16 06:42:00,
2013-07-15 23:47:00,67.4,53.0,29.97,NE,53,0.0,0.0,60,0.00,,,0.00,Wunderground v.1.15,2013-07-16 06:47:00,
2013-07-15 23:52:00,67.3,53.8,29.97,NE,51,0.0,0.0,62,0.00,,,0.00,Wunderground v.1.15,2013-07-16 06:52:00,
2013-07-15 23:57:00,67.1,53.6,29.97,NE,51,0.0,1.0,62,0.00,,,0.00,Wunderground v.1.15,2013-07-16 06:57:00,